createdAt,value
2022-10-17T00:03:00.343Z,-4.12
2022-10-17T00:06:13.087Z,-3.85
2022-10-17T00:09:16.762Z,-3.76
2022-10-17T00:12:20.787Z,-3.62
2022-10-17T00:15:23.851Z,-3.50
2022-10-17T00:18:27.284Z,-3.25
2022-10-17T00:21:30.934Z,-2.41
2022-10-17T00:24:34.848Z,-1.47
2022-10-17T00:27:40.522Z,-0.79
2022-10-17T00:30:44.398Z,-0.34
2022-10-17T00:33:48.237Z,0.32
2022-10-17T00:36:52.634Z,1.03
2022-10-17T00:39:56.219Z,1.45
2022-10-17T00:42:59.555Z,1.57
2022-10-17T00:46:03.177Z,1.45
2022-10-17T00:49:09.678Z,1.44
2022-10-17T00:52:18.975Z,1.53
2022-10-17T00:55:30.214Z,1.73
2022-10-17T00:58:34.432Z,2.05
2022-10-17T01:01:38.246Z,2.24
2022-10-17T01:04:45.219Z,2.53
2022-10-17T01:07:51.641Z,2.86
2022-10-17T01:11:11.008Z,3.18
2022-10-17T01:14:33.425Z,3.66
2022-10-17T01:17:56.557Z,3.78
2022-10-17T01:21:41.002Z,4.20
2022-10-17T01:25:00.309Z,4.34
2022-10-17T01:28:37.721Z,4.34
2022-10-17T01:31:53.423Z,3.92
2022-10-17T01:35:27.756Z,3.95
2022-10-17T01:38:40.327Z,4.38
2022-10-17T01:41:52.859Z,4.46
2022-10-17T01:44:58.789Z,4.08
2022-10-17T01:48:07.900Z,3.98
2022-10-17T01:51:38.809Z,3.99
2022-10-17T01:54:50.584Z,4.29
2022-10-17T01:57:59.058Z,4.75
2022-10-17T02:01:07.342Z,5.07
2022-10-17T02:04:12.410Z,5.72
2022-10-17T02:07:19.309Z,5.85
2022-10-17T02:10:32.552Z,6.11
2022-10-17T02:13:42.977Z,6.61
2022-10-17T02:16:55.600Z,6.63
2022-10-17T02:20:18.483Z,6.66
2022-10-17T02:23:36.724Z,7.07
2022-10-17T02:27:12.551Z,7.27
2022-10-17T02:30:33.232Z,6.86
2022-10-17T02:34:02.112Z,6.75
2022-10-17T02:37:08.663Z,6.82
2022-10-17T02:40:15.053Z,6.92
2022-10-17T02:43:20.179Z,7.24
2022-10-17T02:46:27.735Z,7.13
2022-10-17T02:49:37.319Z,6.89
2022-10-17T02:52:54.039Z,6.72
2022-10-17T02:56:04.190Z,6.92
2022-10-17T02:59:12.359Z,7.01
2022-10-17T03:02:16.023Z,6.80
2022-10-17T03:05:23.883Z,6.78
2022-10-17T03:08:27.571Z,6.81
2022-10-17T03:11:32.540Z,6.72
2022-10-17T03:14:36.761Z,6.69
2022-10-17T03:17:41.190Z,6.47
2022-10-17T03:20:45.336Z,6.22
2022-10-17T03:23:49.612Z,6.21
2022-10-17T03:26:55.038Z,6.24
2022-10-17T03:29:59.733Z,6.50
2022-10-17T03:33:03.423Z,6.74
2022-10-17T03:36:14.121Z,6.69
2022-10-17T03:39:18.039Z,6.65
2022-10-17T03:42:22.135Z,6.90
2022-10-17T03:45:25.908Z,7.08
2022-10-17T03:48:31.873Z,7.07
2022-10-17T03:51:35.905Z,7.10
2022-10-17T03:54:43.668Z,7.07
2022-10-17T03:57:47.572Z,7.14
2022-10-17T04:00:53.970Z,7.13
2022-10-17T04:03:58.244Z,7.02
2022-10-17T04:07:05.858Z,6.99
2022-10-17T04:10:12.277Z,6.84
2022-10-17T04:13:16.055Z,6.77
2022-10-17T04:16:19.440Z,6.82
2022-10-17T04:19:32.580Z,6.61
2022-10-17T04:22:35.954Z,6.45
2022-10-17T04:25:39.291Z,6.38
2022-10-17T04:28:42.156Z,6.31
2022-10-17T04:31:45.209Z,6.48
2022-10-17T04:35:03.429Z,6.76
2022-10-17T04:38:08.197Z,6.87
2022-10-17T04:41:14.510Z,6.84
2022-10-17T04:44:17.499Z,6.73
2022-10-17T04:47:26.755Z,6.59
2022-10-17T04:50:31.111Z,6.42
2022-10-17T04:54:02.764Z,6.40
2022-10-17T04:57:06.367Z,6.41
2022-10-17T05:03:41.771Z,6.59
2022-10-17T05:06:45.464Z,6.66
2022-10-17T05:09:59.691Z,6.77
2022-10-17T05:13:02.722Z,6.68
2022-10-17T05:16:08.716Z,6.70
2022-10-17T05:19:12.662Z,6.82
2022-10-17T05:22:22.366Z,6.76
2022-10-17T05:25:26.363Z,6.62
2022-10-17T05:28:29.355Z,6.73
2022-10-17T05:31:36.210Z,6.66
2022-10-17T05:34:41.209Z,6.72
2022-10-17T05:37:45.259Z,6.77
2022-10-17T05:40:48.957Z,6.75
2022-10-17T05:43:52.178Z,6.77
2022-10-17T05:47:01.321Z,6.88
2022-10-17T05:50:05.084Z,6.91
2022-10-17T05:53:20.859Z,6.97
2022-10-17T05:56:27.363Z,6.98
2022-10-17T05:59:31.037Z,6.98
2022-10-17T06:02:46.389Z,6.98
2022-10-17T06:05:52.478Z,6.87
2022-10-17T06:08:57.038Z,6.81
2022-10-17T06:12:07.350Z,6.78
2022-10-17T06:15:11.352Z,6.86
2022-10-17T06:18:16.861Z,6.91
2022-10-17T06:21:24.621Z,6.96
2022-10-17T06:24:32.835Z,6.87
2022-10-17T06:27:39.760Z,6.90
2022-10-17T06:30:44.058Z,6.91
2022-10-17T06:33:47.883Z,6.85
2022-10-17T06:36:52.105Z,6.92
2022-10-17T06:39:56.096Z,6.91
2022-10-17T06:43:01.414Z,6.93
2022-10-17T06:46:30.275Z,6.99
2022-10-17T06:49:40.123Z,7.07
2022-10-17T06:53:15.888Z,7.04
2022-10-17T06:56:25.858Z,7.02
2022-10-17T06:59:59.106Z,6.91
2022-10-17T07:03:11.035Z,6.84
2022-10-17T07:06:14.738Z,6.83
2022-10-17T07:09:19.858Z,6.84
2022-10-17T07:12:24.785Z,6.97
2022-10-17T07:15:28.772Z,7.12
2022-10-17T07:18:32.084Z,7.05
2022-10-17T07:21:39.005Z,6.91
2022-10-17T07:24:46.195Z,6.81
2022-10-17T07:27:55.943Z,6.82
2022-10-17T07:31:05.366Z,6.88
2022-10-17T07:34:09.578Z,6.92
2022-10-17T07:37:13.146Z,6.87
2022-10-17T07:40:22.927Z,6.85
2022-10-17T07:43:29.144Z,6.87
2022-10-17T07:46:34.479Z,6.93
2022-10-17T07:49:42.971Z,6.93
2022-10-17T07:52:47.099Z,6.93
2022-10-17T07:55:51.903Z,6.90
2022-10-17T08:02:01.363Z,6.94
2022-10-17T08:05:05.563Z,6.94
2022-10-17T08:08:09.275Z,7.15
2022-10-17T08:11:15.831Z,7.43
2022-10-17T08:14:19.394Z,7.21
2022-10-17T08:17:23.161Z,7.06
2022-10-17T08:20:27.241Z,6.95
2022-10-17T08:23:31.319Z,7.11
2022-10-17T08:26:37.956Z,6.94
2022-10-17T08:29:43.419Z,6.91
2022-10-17T08:32:47.154Z,6.82
2022-10-17T08:35:51.200Z,6.72
2022-10-17T08:38:54.722Z,7.01
2022-10-17T08:42:19.109Z,6.96
2022-10-17T08:45:36.261Z,6.87
2022-10-17T08:48:46.708Z,6.96
2022-10-17T08:52:00.341Z,6.69
2022-10-17T08:55:04.240Z,6.54
2022-10-17T08:58:16.189Z,6.53
2022-10-17T09:01:47.142Z,6.64
2022-10-17T09:05:26.696Z,6.58
2022-10-17T09:09:11.644Z,6.33
2022-10-17T09:12:36.265Z,6.16
2022-10-17T09:15:45.325Z,6.00
2022-10-17T09:19:02.040Z,5.90
2022-10-17T09:22:14.362Z,5.79
2022-10-17T09:25:20.604Z,5.66
2022-10-17T09:28:26.813Z,5.48
2022-10-17T09:31:36.125Z,5.24
2022-10-17T09:34:40.135Z,5.02
2022-10-17T09:37:43.460Z,4.67
2022-10-17T09:40:57.423Z,4.45
2022-10-17T09:44:14.558Z,4.16
2022-10-17T09:47:24.343Z,3.83
2022-10-17T09:50:33.514Z,3.69
2022-10-17T09:53:40.787Z,3.47
2022-10-17T09:57:05.087Z,3.33
2022-10-17T10:00:20.742Z,3.14
2022-10-17T10:03:26.575Z,2.96
2022-10-17T10:06:30.505Z,2.81
2022-10-17T10:09:39.468Z,2.70
2022-10-17T10:13:04.540Z,2.62
2022-10-17T10:16:42.137Z,2.52
2022-10-17T10:19:51.906Z,2.52
2022-10-17T10:23:18.229Z,2.54
2022-10-17T10:26:28.042Z,2.59
2022-10-17T10:29:37.268Z,2.55
2022-10-17T10:32:40.624Z,2.48
2022-10-17T10:35:43.863Z,2.47
2022-10-17T10:38:54.976Z,2.50
2022-10-17T10:41:59.418Z,2.43
2022-10-17T10:45:42.845Z,2.30
2022-10-17T10:48:59.107Z,2.30
2022-10-17T10:52:05.617Z,2.27
2022-10-17T10:55:37.982Z,2.23
2022-10-17T10:59:05.622Z,2.22
2022-10-17T11:02:38.952Z,2.20
2022-10-17T11:05:59.755Z,2.14
2022-10-17T11:09:12.087Z,2.04
2022-10-17T11:12:24.363Z,2.04
2022-10-17T11:15:43.742Z,1.97
2022-10-17T11:19:16.778Z,1.92
2022-10-17T11:22:29.267Z,1.81
2022-10-17T11:25:37.277Z,1.78
2022-10-17T11:28:40.283Z,1.71
2022-10-17T11:31:50.112Z,1.75
2022-10-17T11:34:58.924Z,1.71
2022-10-17T11:38:21.311Z,1.61
2022-10-17T11:41:47.500Z,1.51
2022-10-17T11:44:57.449Z,1.46
2022-10-17T11:48:07.142Z,1.43
2022-10-17T11:54:46.202Z,1.42
2022-10-17T11:57:55.732Z,1.30
2022-10-17T12:01:32.678Z,1.23
2022-10-17T12:04:46.129Z,1.21
2022-10-17T12:08:16.554Z,1.18
2022-10-17T12:11:38.227Z,1.10
2022-10-17T12:14:48.125Z,0.98
2022-10-17T12:18:04.907Z,0.91
2022-10-17T12:21:08.617Z,0.83
2022-10-17T12:24:42.984Z,0.78
2022-10-17T12:27:48.114Z,0.72
2022-10-17T12:31:04.101Z,0.71
2022-10-17T12:34:18.480Z,0.71
2022-10-17T12:37:44.327Z,0.62
2022-10-17T12:40:51.388Z,0.59
2022-10-17T12:43:55.966Z,0.53
2022-10-17T12:47:10.078Z,0.52
2022-10-17T12:50:51.543Z,0.43
2022-10-17T12:54:03.046Z,0.42
2022-10-17T12:57:35.629Z,0.35
2022-10-17T13:01:11.685Z,0.29
2022-10-17T13:04:14.556Z,0.30
2022-10-17T13:07:23.486Z,0.40
2022-10-17T13:10:34.817Z,0.47
2022-10-17T13:13:52.773Z,0.48
2022-10-17T13:17:02.861Z,0.39
2022-10-17T13:20:29.051Z,0.25
2022-10-17T13:23:37.353Z,0.21
2022-10-17T13:26:46.342Z,0.19
2022-10-17T13:29:50.469Z,0.05
2022-10-17T13:32:53.825Z,-0.04
2022-10-17T13:36:01.198Z,-0.10
2022-10-17T13:39:13.661Z,-0.17
2022-10-17T13:42:26.832Z,-0.13
2022-10-17T13:45:33.204Z,-0.14
2022-10-17T13:48:39.251Z,-0.12
2022-10-17T13:51:48.353Z,-0.08
2022-10-17T13:54:54.554Z,-0.10
2022-10-17T13:57:57.919Z,-0.10
2022-10-17T14:01:01.306Z,-0.12
2022-10-17T14:04:11.643Z,-0.10
2022-10-17T14:07:34.211Z,-0.09
2022-10-17T14:10:43.655Z,-0.12
2022-10-17T14:13:51.562Z,-0.12
2022-10-17T14:16:55.645Z,-0.18
2022-10-17T14:23:33.966Z,-0.23
2022-10-17T14:26:54.011Z,-0.28
2022-10-17T14:30:03.196Z,-0.37
2022-10-17T14:33:13.439Z,-0.49
2022-10-17T14:36:17.312Z,-0.57
2022-10-17T14:39:25.046Z,-0.64
2022-10-17T14:42:28.875Z,-0.76
2022-10-17T14:45:38.086Z,-0.85
2022-10-17T14:48:43.742Z,-0.87
2022-10-17T14:52:18.941Z,-0.88
2022-10-17T14:55:25.351Z,-0.82
2022-10-17T14:58:34.286Z,-0.86
2022-10-17T15:01:37.807Z,-0.93
2022-10-17T15:04:42.225Z,-1.02
2022-10-17T15:07:45.190Z,-1.19
2022-10-17T15:10:49.713Z,-1.17
2022-10-17T15:13:53.444Z,-1.15
2022-10-17T15:16:56.809Z,-1.14
2022-10-17T15:20:00.204Z,-1.13
2022-10-17T15:23:04.836Z,-1.12
2022-10-17T15:26:26.368Z,-1.09
2022-10-17T15:29:29.933Z,-1.13
2022-10-17T15:32:33.844Z,-1.18
2022-10-17T15:35:37.976Z,-1.28
2022-10-17T15:38:40.985Z,-1.31
2022-10-17T15:41:45.069Z,-1.31
2022-10-17T15:44:50.619Z,-1.35
2022-10-17T15:47:57.170Z,-1.41
2022-10-17T15:51:00.255Z,-1.46
2022-10-17T15:54:05.477Z,-1.57
2022-10-17T15:57:24.144Z,-1.65
2022-10-17T16:00:28.476Z,-1.78
2022-10-17T16:03:32.370Z,-1.75
2022-10-17T16:06:36.498Z,-1.72
2022-10-17T16:09:40.264Z,-1.69
2022-10-17T16:12:44.452Z,-1.65
2022-10-17T16:15:47.588Z,-1.73
2022-10-17T16:18:50.604Z,-1.79
2022-10-17T16:21:56.276Z,-1.75
2022-10-17T16:25:08.415Z,-1.74
2022-10-17T16:28:12.510Z,-1.78
2022-10-17T16:31:37.203Z,-1.80
2022-10-17T16:34:41.013Z,-1.87
2022-10-17T16:37:44.727Z,-1.96
2022-10-17T16:40:47.702Z,-2.05
2022-10-17T16:43:51.777Z,-2.11
2022-10-17T16:46:54.908Z,-2.14
2022-10-17T16:49:58.679Z,-2.15
2022-10-17T16:53:04.600Z,-2.16
2022-10-17T16:56:09.192Z,-2.15
2022-10-17T16:59:13.221Z,-2.19
2022-10-17T17:02:18.921Z,-2.31
2022-10-17T17:05:24.182Z,-2.39
2022-10-17T17:08:27.928Z,-2.41
2022-10-17T17:11:33.322Z,-2.41
2022-10-17T17:14:36.515Z,-2.43
2022-10-17T17:17:55.759Z,-2.44
2022-10-17T17:21:01.371Z,-2.46
2022-10-17T17:24:06.386Z,-2.52
2022-10-17T17:27:12.822Z,-2.78
2022-10-17T17:30:18.438Z,-2.97
2022-10-17T17:33:25.492Z,-3.16
2022-10-17T17:36:31.432Z,-3.24
2022-10-17T17:39:35.099Z,-3.33
2022-10-17T17:42:38.916Z,-3.31
2022-10-17T17:45:42.684Z,-3.28
2022-10-17T17:48:48.637Z,-3.27
2022-10-17T17:51:51.589Z,-3.38
2022-10-17T17:54:55.079Z,-3.51
2022-10-17T17:57:58.072Z,-3.51
2022-10-17T18:01:02.751Z,-3.51
2022-10-17T18:04:09.138Z,-3.42
2022-10-17T18:07:12.996Z,-3.32
2022-10-17T18:10:16.960Z,-3.27
2022-10-17T18:13:21.577Z,-3.34
2022-10-17T18:16:26.550Z,-3.33
2022-10-17T18:19:29.758Z,-3.50
2022-10-17T18:22:33.136Z,-3.71
2022-10-17T18:25:37.269Z,-3.80
2022-10-17T18:31:45.361Z,-3.86
2022-10-17T18:34:48.132Z,-3.92
2022-10-17T18:37:51.090Z,-3.78
2022-10-17T18:41:04.239Z,-3.67
2022-10-17T18:44:07.568Z,-3.80
2022-10-17T18:47:11.723Z,-3.96
2022-10-17T18:50:15.712Z,-4.03
2022-10-17T18:53:19.694Z,-3.96
2022-10-17T18:56:24.331Z,-3.83
2022-10-17T18:59:28.039Z,-3.74
2022-10-17T19:02:35.526Z,-3.71
2022-10-17T19:05:41.732Z,-3.69
2022-10-17T19:08:46.139Z,-3.71
2022-10-17T19:11:49.053Z,-3.72
2022-10-17T19:14:53.577Z,-3.77
2022-10-17T19:17:56.814Z,-3.80
2022-10-17T19:21:04.926Z,-3.79
2022-10-17T19:24:12.120Z,-3.82
2022-10-17T19:27:16.079Z,-3.87
2022-10-17T19:30:19.177Z,-3.90
2022-10-17T19:33:23.189Z,-3.90
2022-10-17T19:36:32.524Z,-3.92
2022-10-17T19:39:36.684Z,-3.93
2022-10-17T19:42:40.148Z,-3.96
2022-10-17T19:45:43.010Z,-3.93
2022-10-17T19:48:46.431Z,-3.91
2022-10-17T19:51:50.083Z,-3.98
2022-10-17T19:54:53.636Z,-4.06
2022-10-17T19:57:59.689Z,-4.04
2022-10-17T20:01:06.499Z,-4.02
2022-10-17T20:04:11.402Z,-4.04
2022-10-17T20:07:14.884Z,-4.08
2022-10-17T20:10:19.528Z,-4.16
2022-10-17T20:13:23.275Z,-4.27
2022-10-17T20:16:30.188Z,-4.28
2022-10-17T20:19:33.971Z,-4.31
2022-10-17T20:22:36.913Z,-4.34
2022-10-17T20:25:40.215Z,-4.37
2022-10-17T20:28:43.843Z,-4.48
2022-10-17T20:31:48.876Z,-4.57
2022-10-17T20:34:51.789Z,-4.55
2022-10-17T20:37:54.805Z,-4.53
2022-10-17T20:41:05.409Z,-4.51
2022-10-17T20:44:08.910Z,-4.53
2022-10-17T20:47:16.237Z,-4.52
2022-10-17T20:50:21.087Z,-4.57
2022-10-17T20:53:36.692Z,-4.61
2022-10-17T20:56:41.124Z,-4.66
2022-10-17T20:59:46.374Z,-4.74
2022-10-17T21:02:50.721Z,-4.79
2022-10-17T21:05:54.638Z,-4.89
2022-10-17T21:08:58.495Z,-4.92
2022-10-17T21:12:02.237Z,-4.86
2022-10-17T21:15:05.920Z,-4.85
2022-10-17T21:18:09.493Z,-4.87
2022-10-17T21:21:14.612Z,-4.90
2022-10-17T21:24:20.067Z,-4.96
2022-10-17T21:27:23.015Z,-5.04
2022-10-17T21:30:26.952Z,-5.14
2022-10-17T21:33:29.826Z,-5.09
2022-10-17T21:36:33.047Z,-5.12
2022-10-17T21:39:37.201Z,-5.29
2022-10-17T21:42:40.732Z,-5.34
2022-10-17T21:45:44.612Z,-5.42
2022-10-17T21:48:49.227Z,-5.50
2022-10-17T21:51:53.987Z,-5.68
2022-10-17T21:54:56.989Z,-5.62
2022-10-17T21:58:00.243Z,-5.54
2022-10-17T22:01:17.272Z,-5.57
2022-10-17T22:04:21.222Z,-5.71
2022-10-17T22:07:24.540Z,-5.77
2022-10-17T22:10:28.460Z,-5.77
2022-10-17T22:13:32.115Z,-5.97
2022-10-17T22:16:36.443Z,-6.04
2022-10-17T22:19:39.980Z,-5.89
2022-10-17T22:22:43.827Z,-5.77
2022-10-17T22:25:57.690Z,-5.73
2022-10-17T22:29:02.051Z,-5.78
2022-10-17T22:32:05.301Z,-5.94
2022-10-17T22:35:09.484Z,-6.05
2022-10-17T22:38:13.273Z,-6.00
2022-10-17T22:41:17.151Z,-5.93
2022-10-17T22:44:20.379Z,-6.03
2022-10-17T22:47:24.397Z,-6.03
2022-10-17T22:50:27.916Z,-5.99
2022-10-17T22:53:31.483Z,-6.01
2022-10-17T22:56:35.154Z,-6.01
2022-10-17T22:59:38.374Z,-5.96
2022-10-17T23:02:41.527Z,-5.99
2022-10-17T23:05:46.033Z,-5.99
2022-10-17T23:08:49.128Z,-6.06
2022-10-17T23:11:52.748Z,-6.05
2022-10-17T23:14:55.709Z,-5.96
2022-10-17T23:17:59.363Z,-5.84
2022-10-17T23:21:02.308Z,-5.78
2022-10-17T23:24:05.590Z,-5.73
2022-10-17T23:27:08.462Z,-5.71
2022-10-17T23:30:12.702Z,-5.67
2022-10-17T23:33:16.382Z,-5.63
2022-10-17T23:36:21.736Z,-5.58
2022-10-17T23:39:24.666Z,-5.56
2022-10-17T23:42:28.706Z,-5.59
2022-10-17T23:45:36.065Z,-5.49
2022-10-17T23:48:41.168Z,-5.50
2022-10-17T23:51:44.002Z,-5.47
2022-10-17T23:54:47.669Z,-5.38
2022-10-17T23:57:51.199Z,-5.38
